createdAt,value
2022-09-28T00:01:42.478Z,97327.87
2022-09-28T00:04:14.192Z,97323.77
2022-09-28T00:06:46.871Z,97319.15
2022-09-28T00:09:18.287Z,97317.76
2022-09-28T00:11:48.368Z,97317.58
2022-09-28T00:14:18.108Z,97318.31
2022-09-28T00:16:50.327Z,97320.27
2022-09-28T00:19:20.571Z,97323.73
2022-09-28T00:21:49.307Z,97318.75
2022-09-28T00:24:18.159Z,97315.36
2022-09-28T00:26:55.914Z,97317.13
2022-09-28T00:29:28.178Z,97309.77
2022-09-28T00:32:02.619Z,97308.89
2022-09-28T00:34:38.469Z,97313.40
2022-09-28T00:37:09.586Z,97318.54
2022-09-28T00:39:42.328Z,97320.67
2022-09-28T00:42:19.901Z,97318.83
2022-09-28T00:44:47.933Z,97320.69
2022-09-28T00:47:26.350Z,97317.14
2022-09-28T00:50:01.004Z,97319.11
2022-09-28T00:52:42.809Z,97313.45
2022-09-28T00:55:22.083Z,97311.61
2022-09-28T00:58:00.686Z,97313.41
2022-09-28T01:00:28.831Z,97315.48
2022-09-28T01:03:02.093Z,97318.64
2022-09-28T01:05:33.032Z,97316.48
2022-09-28T01:08:04.785Z,97311.31
2022-09-28T01:10:34.786Z,97309.55
2022-09-28T01:13:02.491Z,97308.35
2022-09-28T01:15:38.415Z,97309.63
2022-09-28T01:18:21.672Z,97310.83
2022-09-28T01:24:46.597Z,97315.83
2022-09-28T01:27:27.389Z,97314.94
2022-09-28T01:30:12.305Z,97318.47
2022-09-28T01:32:43.080Z,97311.24
2022-09-28T01:35:41.010Z,97305.52
2022-09-28T01:38:22.273Z,97304.61
2022-09-28T01:40:54.442Z,97306.16
2022-09-28T01:43:37.594Z,97307.02
2022-09-28T01:46:17.957Z,97305.91
2022-09-28T01:49:00.815Z,97305.23
2022-09-28T01:51:41.160Z,97305.11
2022-09-28T01:54:29.558Z,97299.67
2022-09-28T01:57:10.963Z,97300.63
2022-09-28T01:59:46.696Z,97303.98
2022-09-28T02:02:26.780Z,97308.77
2022-09-28T02:05:13.394Z,97309.27
2022-09-28T02:08:03.645Z,97311.96
2022-09-28T02:10:44.121Z,97319.24
2022-09-28T02:13:42.910Z,97323.34
2022-09-28T02:16:21.562Z,97330.15
2022-09-28T02:18:53.679Z,97335.44
2022-09-28T02:21:34.645Z,97334.07
2022-09-28T02:24:21.713Z,97327.33
2022-09-28T02:26:55.936Z,97319.23
2022-09-28T02:29:27.434Z,97313.17
2022-09-28T02:31:57.847Z,97299.27
2022-09-28T02:34:26.275Z,97289.52
2022-09-28T02:36:58.528Z,97294.00
2022-09-28T02:39:28.893Z,97295.89
2022-09-28T02:42:19.610Z,97296.99
2022-09-28T02:45:09.949Z,97304.63
2022-09-28T02:47:59.309Z,97301.22
2022-09-28T02:50:52.892Z,97302.36
2022-09-28T02:53:50.532Z,97312.23
2022-09-28T02:56:34.387Z,97315.13
2022-09-28T02:59:39.637Z,97318.52
2022-09-28T03:02:26.398Z,97322.92
2022-09-28T03:05:09.238Z,97323.55
2022-09-28T03:08:03.566Z,97325.16
2022-09-28T03:10:46.564Z,97328.23
2022-09-28T03:13:18.946Z,97321.13
2022-09-28T03:15:48.974Z,97317.57
2022-09-28T03:18:21.605Z,97321.16
2022-09-28T03:20:52.920Z,97325.69
2022-09-28T03:23:24.753Z,97331.61
2022-09-28T03:25:56.440Z,97342.17
2022-09-28T03:28:26.733Z,97344.99
2022-09-28T03:30:54.521Z,97349.13
2022-09-28T03:33:23.797Z,97352.33
2022-09-28T03:35:56.954Z,97360.64
2022-09-28T03:38:27.072Z,97356.21
2022-09-28T03:41:03.246Z,97358.49
2022-09-28T03:43:32.266Z,97357.76
2022-09-28T03:46:03.248Z,97357.20
2022-09-28T03:48:40.147Z,97359.15
2022-09-28T03:51:11.089Z,97357.02
2022-09-28T03:53:40.974Z,97360.64
2022-09-28T03:56:14.225Z,97358.38
2022-09-28T03:58:46.760Z,97354.66
2022-09-28T04:01:19.596Z,97353.82
2022-09-28T04:03:56.091Z,97355.23
2022-09-28T04:06:29.713Z,97357.44
2022-09-28T04:08:57.841Z,97354.77
2022-09-28T04:11:25.557Z,97356.86
2022-09-28T04:13:53.497Z,97360.11
2022-09-28T04:16:24.159Z,97362.98
2022-09-28T04:19:04.387Z,97361.30
2022-09-28T04:21:32.193Z,97365.20
2022-09-28T04:24:00.857Z,97363.46
2022-09-28T04:26:31.661Z,97363.14
2022-09-28T04:29:19.533Z,97359.20
2022-09-28T04:31:57.391Z,97362.00
2022-09-28T04:34:29.802Z,97362.08
2022-09-28T04:36:59.876Z,97360.23
2022-09-28T04:39:30.550Z,97360.66
2022-09-28T04:41:58.491Z,97359.41
2022-09-28T04:44:26.397Z,97359.13
2022-09-28T04:47:04.361Z,97362.42
2022-09-28T04:49:39.772Z,97357.14
2022-09-28T04:52:13.558Z,97358.43
2022-09-28T04:54:47.091Z,97351.61
2022-09-28T04:57:15.939Z,97354.30
2022-09-28T04:59:48.213Z,97352.91
2022-09-28T05:02:16.222Z,97360.74
2022-09-28T05:04:43.894Z,97362.90
2022-09-28T05:07:13.133Z,97366.91
2022-09-28T05:09:41.235Z,97367.67
2022-09-28T05:12:13.621Z,97369.95
2022-09-28T05:14:43.635Z,97366.77
2022-09-28T05:17:11.406Z,97369.31
2022-09-28T05:19:39.508Z,97371.98
2022-09-28T05:22:15.029Z,97374.92
2022-09-28T05:24:43.949Z,97376.19
2022-09-28T05:27:13.821Z,97373.73
2022-09-28T05:29:41.866Z,97375.86
2022-09-28T05:32:12.835Z,97376.06
2022-09-28T05:34:40.558Z,97384.91
2022-09-28T05:37:12.793Z,97384.27
2022-09-28T05:39:42.852Z,97389.52
2022-09-28T05:42:10.754Z,97386.58
2022-09-28T05:44:39.088Z,97391.23
2022-09-28T05:47:09.829Z,97389.64
2022-09-28T05:49:37.505Z,97392.56
2022-09-28T05:52:05.266Z,97396.24
2022-09-28T05:54:36.262Z,97400.52
2022-09-28T05:57:10.068Z,97400.32
2022-09-28T05:59:41.520Z,97397.80
2022-09-28T06:02:11.161Z,97397.47
2022-09-28T06:04:39.241Z,97398.30
2022-09-28T06:07:07.540Z,97398.93
2022-09-28T06:09:35.266Z,97396.92
2022-09-28T06:12:03.536Z,97398.39
2022-09-28T06:14:31.480Z,97402.14
2022-09-28T06:16:59.832Z,97406.53
2022-09-28T06:19:31.465Z,97409.42
2022-09-28T06:21:59.443Z,97411.73
2022-09-28T06:24:30.346Z,97416.75
2022-09-28T06:26:58.185Z,97421.54
2022-09-28T06:29:31.763Z,97420.25
2022-09-28T06:31:59.487Z,97426.05
2022-09-28T06:34:31.924Z,97426.02
2022-09-28T06:36:59.635Z,97430.01
2022-09-28T06:39:27.957Z,97427.70
2022-09-28T06:41:56.957Z,97427.14
2022-09-28T06:44:25.618Z,97422.14
2022-09-28T06:46:54.101Z,97424.35
2022-09-28T06:49:23.078Z,97417.61
2022-09-28T06:51:51.001Z,97417.70
2022-09-28T06:54:20.375Z,97415.48
2022-09-28T06:56:48.246Z,97413.99
2022-09-28T06:59:16.111Z,97417.27
2022-09-28T07:01:44.110Z,97419.00
2022-09-28T07:04:13.019Z,97423.08
2022-09-28T07:06:47.396Z,97431.10
2022-09-28T07:09:30.681Z,97436.85
2022-09-28T07:12:01.603Z,97436.09
2022-09-28T07:14:47.489Z,97438.12
2022-09-28T07:17:17.572Z,97431.92
2022-09-28T07:19:46.547Z,97432.48
2022-09-28T07:22:18.960Z,97433.06
2022-09-28T07:24:49.183Z,97439.45
2022-09-28T07:27:18.646Z,97441.09
2022-09-28T07:29:46.394Z,97445.36
2022-09-28T07:32:16.679Z,97447.11
2022-09-28T07:34:45.226Z,97447.45
2022-09-28T07:37:14.419Z,97456.14
2022-09-28T07:40:03.295Z,97457.55
2022-09-28T07:42:31.555Z,97461.41
2022-09-28T07:45:00.953Z,97459.64
2022-09-28T07:47:34.827Z,97461.07
2022-09-28T07:50:03.987Z,97466.39
2022-09-28T07:52:36.735Z,97471.80
2022-09-28T07:55:07.216Z,97469.49
2022-09-28T07:57:36.998Z,97467.30
2022-09-28T08:00:09.291Z,97473.06
2022-09-28T08:02:38.450Z,97474.91
2022-09-28T08:05:10.047Z,97474.67
2022-09-28T08:07:38.885Z,97471.36
2022-09-28T08:10:07.671Z,97472.00
2022-09-28T08:12:41.579Z,97476.14
2022-09-28T08:15:11.335Z,97473.30
2022-09-28T08:17:39.129Z,97473.05
2022-09-28T08:20:28.833Z,97478.00
2022-09-28T08:23:08.721Z,97474.53
2022-09-28T08:25:38.715Z,97473.23
2022-09-28T08:28:09.738Z,97472.73
2022-09-28T08:30:38.745Z,97470.27
2022-09-28T08:33:08.084Z,97469.70
2022-09-28T08:35:37.535Z,97461.84
2022-09-28T08:38:08.299Z,97452.05
2022-09-28T08:41:13.815Z,97446.65
2022-09-28T08:43:48.057Z,97443.59
2022-09-28T08:46:23.801Z,97446.48
2022-09-28T08:49:24.854Z,97447.21
2022-09-28T08:52:08.356Z,97451.04
2022-09-28T08:55:26.357Z,97456.28
2022-09-28T08:58:20.070Z,97456.36
2022-09-28T09:00:51.126Z,97457.69
2022-09-28T09:03:36.027Z,97450.42
2022-09-28T09:06:03.863Z,97441.77
2022-09-28T09:08:56.264Z,97438.15
2022-09-28T09:11:44.407Z,97435.98
2022-09-28T09:14:35.023Z,97433.61
2022-09-28T09:17:24.512Z,97433.33
2022-09-28T09:20:07.955Z,97434.67
2022-09-28T09:22:48.493Z,97427.84
2022-09-28T09:25:52.097Z,97427.85
2022-09-28T09:28:32.045Z,97427.36
2022-09-28T09:31:43.757Z,97424.77
2022-09-28T09:34:21.025Z,97425.17
2022-09-28T09:37:05.480Z,97429.19
2022-09-28T09:39:58.638Z,97431.22
2022-09-28T09:42:29.884Z,97430.96
2022-09-28T09:45:19.079Z,97429.19
2022-09-28T09:47:53.699Z,97428.15
2022-09-28T09:50:31.039Z,97433.70
2022-09-28T09:53:25.389Z,97442.33
2022-09-28T09:55:58.762Z,97447.10
2022-09-28T09:58:34.398Z,97448.63
2022-09-28T10:01:10.609Z,97440.84
2022-09-28T10:03:44.976Z,97435.91
2022-09-28T10:06:46.632Z,97433.89
2022-09-28T10:09:25.324Z,97436.30
2022-09-28T10:11:54.595Z,97428.72
2022-09-28T10:14:24.872Z,97434.59
2022-09-28T10:16:55.943Z,97445.17
2022-09-28T10:19:35.163Z,97451.25
2022-09-28T10:22:06.700Z,97445.72
2022-09-28T10:24:41.579Z,97434.02
2022-09-28T10:27:38.758Z,97420.83
2022-09-28T10:30:09.565Z,97425.92
2022-09-28T10:32:40.199Z,97440.85
2022-09-28T10:35:23.073Z,97447.64
2022-09-28T10:37:56.699Z,97443.34
2022-09-28T10:40:43.600Z,97433.33
2022-09-28T10:43:35.948Z,97435.09
2022-09-28T10:46:07.613Z,97440.94
2022-09-28T10:48:55.103Z,97440.55
2022-09-28T10:51:45.519Z,97444.55
2022-09-28T10:54:22.298Z,97452.56
2022-09-28T10:56:52.961Z,97455.52
2022-09-28T10:59:25.484Z,97458.16
2022-09-28T11:01:59.966Z,97452.39
2022-09-28T11:04:40.666Z,97452.64
2022-09-28T11:07:20.465Z,97452.09
2022-09-28T11:09:50.220Z,97448.47
2022-09-28T11:12:24.846Z,97448.02
2022-09-28T11:15:05.077Z,97450.15
2022-09-28T11:17:40.655Z,97448.60
2022-09-28T11:20:28.200Z,97437.73
2022-09-28T11:23:00.365Z,97439.86
2022-09-28T11:25:31.599Z,97441.14
2022-09-28T11:28:05.031Z,97440.56
2022-09-28T11:30:44.772Z,97444.55
2022-09-28T11:33:24.470Z,97445.70
2022-09-28T11:36:19.251Z,97443.20
2022-09-28T11:39:13.400Z,97441.08
2022-09-28T11:41:48.675Z,97439.12
2022-09-28T11:44:32.530Z,97430.05
2022-09-28T11:47:39.735Z,97425.71
2022-09-28T11:50:32.456Z,97426.66
2022-09-28T11:53:42.886Z,97422.24
2022-09-28T11:56:40.627Z,97427.12
2022-09-28T11:59:27.753Z,97425.84
2022-09-28T12:02:22.540Z,97428.80
2022-09-28T12:05:15.932Z,97423.40
2022-09-28T12:07:56.581Z,97418.35
2022-09-28T12:10:45.540Z,97420.92
2022-09-28T12:13:23.063Z,97420.92
2022-09-28T12:16:27.652Z,97416.54
2022-09-28T12:21:37.256Z,97416.03
2022-09-28T12:24:27.278Z,97422.04
2022-09-28T12:27:04.429Z,97417.52
2022-09-28T12:29:41.368Z,97418.71
2022-09-28T12:32:31.489Z,97413.86
2022-09-28T12:35:03.378Z,97417.38
2022-09-28T12:37:53.960Z,97421.16
2022-09-28T12:40:42.349Z,97413.48
2022-09-28T12:43:34.034Z,97411.01
2022-09-28T12:46:41.211Z,97413.30
2022-09-28T12:52:50.437Z,97406.63
2022-09-28T12:56:01.936Z,97407.83
2022-09-28T12:58:51.040Z,97403.71
2022-09-28T13:01:46.360Z,97398.39
2022-09-28T13:04:37.182Z,97399.27
2022-09-28T13:07:39.060Z,97390.84
2022-09-28T13:10:26.576Z,97383.20
2022-09-28T13:13:06.434Z,97382.84
2022-09-28T13:15:50.672Z,97377.39
2022-09-28T13:18:45.530Z,97371.30
2022-09-28T13:21:20.170Z,97361.67
2022-09-28T13:24:00.720Z,97353.48
2022-09-28T13:26:43.686Z,97358.63
2022-09-28T13:29:15.949Z,97362.55
2022-09-28T13:31:57.391Z,97365.79
2022-09-28T13:34:28.991Z,97367.21
2022-09-28T13:37:18.911Z,97368.23
2022-09-28T13:39:53.116Z,97367.95
2022-09-28T13:42:29.696Z,97367.01
2022-09-28T13:45:20.525Z,97367.11
2022-09-28T13:47:59.949Z,97364.35
2022-09-28T13:50:54.109Z,97368.33
2022-09-28T13:53:52.498Z,97370.05
2022-09-28T13:56:29.961Z,97365.12
2022-09-28T13:59:15.219Z,97368.13
2022-09-28T14:01:55.929Z,97373.77
2022-09-28T14:04:48.580Z,97372.16
2022-09-28T14:07:23.483Z,97370.88
2022-09-28T14:10:24.745Z,97372.37
2022-09-28T14:12:54.997Z,97374.60
2022-09-28T14:15:28.524Z,97378.52
2022-09-28T14:18:24.800Z,97379.17
2022-09-28T14:21:26.042Z,97377.95
2022-09-28T14:24:08.555Z,97378.84
2022-09-28T14:26:42.263Z,97378.64
2022-09-28T14:29:30.603Z,97375.73
2022-09-28T14:32:10.212Z,97371.23
2022-09-28T14:34:46.647Z,97367.09
2022-09-28T14:37:56.881Z,97362.05
2022-09-28T14:40:50.545Z,97357.02
2022-09-28T14:43:25.076Z,97356.34
2022-09-28T14:46:15.690Z,97356.10
2022-09-28T14:49:01.818Z,97351.11
2022-09-28T14:51:30.467Z,97347.95
2022-09-28T14:54:08.415Z,97343.99
2022-09-28T14:56:43.721Z,97345.54
2022-09-28T14:59:26.281Z,97342.89
2022-09-28T15:02:06.444Z,97348.35
2022-09-28T15:04:39.658Z,97350.11
2022-09-28T15:07:20.131Z,97346.68
2022-09-28T15:09:51.517Z,97344.32
2022-09-28T15:12:27.716Z,97340.09
2022-09-28T15:14:58.854Z,97329.73
2022-09-28T15:17:39.420Z,97332.75
2022-09-28T15:20:24.702Z,97346.55
2022-09-28T15:22:58.865Z,97355.66
2022-09-28T15:25:31.819Z,97360.33
2022-09-28T15:28:06.537Z,97363.24
2022-09-28T15:30:36.548Z,97366.20
2022-09-28T15:33:24.634Z,97371.19
2022-09-28T15:36:04.418Z,97378.37
2022-09-28T15:38:36.056Z,97378.95
2022-09-28T15:41:07.174Z,97382.14
2022-09-28T15:43:37.556Z,97390.39
2022-09-28T15:46:20.695Z,97398.23
2022-09-28T15:48:56.950Z,97392.45
2022-09-28T15:51:28.670Z,97395.38
2022-09-28T15:54:10.661Z,97399.67
2022-09-28T15:56:58.108Z,97399.00
2022-09-28T15:59:32.052Z,97391.34
2022-09-28T16:02:20.907Z,97385.67
2022-09-28T16:04:56.298Z,97381.29
2022-09-28T16:07:34.420Z,97380.67
2022-09-28T16:10:12.848Z,97382.80
2022-09-28T16:13:17.868Z,97378.30
2022-09-28T16:15:55.600Z,97375.79
2022-09-28T16:18:26.666Z,97376.12
2022-09-28T16:21:16.532Z,97375.41
2022-09-28T16:23:55.719Z,97375.11
2022-09-28T16:26:35.892Z,97378.71
2022-09-28T16:29:25.910Z,97380.40
2022-09-28T16:31:55.643Z,97375.46
2022-09-28T16:34:28.664Z,97369.23
2022-09-28T16:36:56.710Z,97360.89
2022-09-28T16:39:26.812Z,97355.52
2022-09-28T16:42:04.043Z,97355.23
2022-09-28T16:44:33.839Z,97352.41
2022-09-28T16:47:02.992Z,97355.84
2022-09-28T16:49:35.316Z,97355.63
2022-09-28T16:52:04.409Z,97355.67
2022-09-28T16:54:52.000Z,97359.21
2022-09-28T16:57:21.786Z,97356.88
2022-09-28T16:59:50.872Z,97354.80
2022-09-28T17:05:16.055Z,97356.95
2022-09-28T17:07:46.193Z,97355.02
2022-09-28T17:10:25.626Z,97351.52
2022-09-28T17:12:53.336Z,97346.81
2022-09-28T17:15:21.370Z,97347.27
2022-09-28T17:17:51.905Z,97343.20
2022-09-28T17:20:26.361Z,97346.19
2022-09-28T17:22:54.326Z,97350.34
2022-09-28T17:25:26.192Z,97347.17
2022-09-28T17:27:57.620Z,97344.48
2022-09-28T17:30:26.833Z,97350.30
2022-09-28T17:32:55.706Z,97354.05
2022-09-28T17:35:25.034Z,97359.38
2022-09-28T17:37:56.961Z,97357.77
2022-09-28T17:40:28.517Z,97363.30
2022-09-28T17:42:59.524Z,97362.34
2022-09-28T17:45:32.725Z,97365.32
2022-09-28T17:48:02.808Z,97368.23
2022-09-28T17:50:34.981Z,97368.10
2022-09-28T17:53:07.337Z,97372.97
2022-09-28T17:55:37.031Z,97372.29
2022-09-28T17:58:23.505Z,97377.59
2022-09-28T18:00:52.984Z,97378.86
2022-09-28T18:03:24.379Z,97381.48
2022-09-28T18:06:04.376Z,97381.56
2022-09-28T18:08:34.775Z,97385.10
2022-09-28T18:11:03.928Z,97382.95
2022-09-28T18:13:34.109Z,97382.10
2022-09-28T18:16:05.108Z,97384.14
2022-09-28T18:18:38.786Z,97387.09
2022-09-28T18:21:09.488Z,97392.27
2022-09-28T18:23:40.135Z,97389.61
2022-09-28T18:26:15.969Z,97393.86
2022-09-28T18:28:43.941Z,97398.11
2022-09-28T18:31:16.372Z,97403.02
2022-09-28T18:33:45.541Z,97400.24
2022-09-28T18:36:13.421Z,97401.02
2022-09-28T18:38:42.681Z,97394.67
2022-09-28T18:41:16.012Z,97399.94
2022-09-28T18:43:51.132Z,97401.38
2022-09-28T18:46:20.448Z,97404.66
2022-09-28T18:48:49.596Z,97406.48
2022-09-28T18:51:20.698Z,97401.75
2022-09-28T18:53:51.297Z,97403.80
2022-09-28T18:56:22.500Z,97404.97
2022-09-28T18:58:51.933Z,97409.97
2022-09-28T19:01:31.058Z,97410.33
2022-09-28T19:04:04.890Z,97408.97
2022-09-28T19:06:34.986Z,97410.81
2022-09-28T19:09:04.903Z,97413.45
2022-09-28T19:11:33.884Z,97416.46
2022-09-28T19:14:04.317Z,97419.48
2022-09-28T19:16:35.955Z,97422.41
2022-09-28T19:19:03.715Z,97424.79
2022-09-28T19:21:31.981Z,97423.92
2022-09-28T19:24:04.346Z,97430.52
2022-09-28T19:26:33.794Z,97434.20
2022-09-28T19:29:03.793Z,97430.77
2022-09-28T19:31:34.090Z,97429.39
2022-09-28T19:34:04.085Z,97427.52
2022-09-28T19:36:33.793Z,97427.77
2022-09-28T19:39:03.442Z,97427.27
2022-09-28T19:41:44.538Z,97426.50
2022-09-28T19:44:25.218Z,97429.69
2022-09-28T19:47:07.082Z,97425.23
2022-09-28T19:49:40.482Z,97424.63
2022-09-28T19:52:16.793Z,97431.48
2022-09-28T19:54:57.842Z,97435.27
2022-09-28T19:57:31.720Z,97440.51
2022-09-28T20:00:03.751Z,97446.45
2022-09-28T20:02:35.328Z,97445.16
2022-09-28T20:05:06.155Z,97449.52
2022-09-28T20:07:37.431Z,97446.91
2022-09-28T20:10:08.073Z,97448.31
2022-09-28T20:12:36.173Z,97447.89
2022-09-28T20:15:06.825Z,97446.46
2022-09-28T20:17:37.676Z,97443.85
2022-09-28T20:20:08.244Z,97446.91
2022-09-28T20:22:38.414Z,97450.30
2022-09-28T20:25:07.741Z,97449.97
2022-09-28T20:27:39.286Z,97449.60
2022-09-28T20:30:09.612Z,97449.90
2022-09-28T20:32:39.449Z,97448.13
2022-09-28T20:35:09.213Z,97457.30
2022-09-28T20:37:36.960Z,97459.77
2022-09-28T20:40:06.823Z,97457.61
2022-09-28T20:42:36.459Z,97468.30
2022-09-28T20:45:06.017Z,97470.47
2022-09-28T20:47:35.246Z,97471.31
2022-09-28T20:50:03.262Z,97475.44
2022-09-28T20:52:31.233Z,97473.14
2022-09-28T20:55:00.844Z,97472.14
2022-09-28T20:57:29.154Z,97472.37
2022-09-28T20:59:57.052Z,97474.34
2022-09-28T21:02:27.060Z,97474.77
2022-09-28T21:04:55.386Z,97474.32
2022-09-28T21:07:23.098Z,97472.41
2022-09-28T21:09:51.100Z,97471.96
2022-09-28T21:12:20.210Z,97470.66
2022-09-28T21:14:48.384Z,97468.13
2022-09-28T21:17:17.274Z,97471.17
2022-09-28T21:19:47.166Z,97472.10
2022-09-28T21:22:15.102Z,97469.69
2022-09-28T21:24:43.042Z,97468.40
2022-09-28T21:27:11.002Z,97467.15
2022-09-28T21:29:40.641Z,97466.05
2022-09-28T21:32:09.792Z,97472.77
2022-09-28T21:34:38.186Z,97472.63
2022-09-28T21:37:06.134Z,97471.04
2022-09-28T21:39:34.404Z,97473.97
2022-09-28T21:42:02.379Z,97472.80
2022-09-28T21:44:30.581Z,97477.48
2022-09-28T21:46:58.374Z,97478.98
2022-09-28T21:49:26.286Z,97479.88
2022-09-28T21:51:54.497Z,97482.81
2022-09-28T21:54:24.171Z,97484.65
2022-09-28T21:56:54.438Z,97486.78
2022-09-28T21:59:23.878Z,97487.18
2022-09-28T22:01:55.995Z,97492.19
2022-09-28T22:04:23.949Z,97495.30
2022-09-28T22:06:52.261Z,97498.39
2022-09-28T22:09:20.215Z,97495.73
2022-09-28T22:11:51.073Z,97497.56
2022-09-28T22:14:19.159Z,97498.77
2022-09-28T22:16:48.257Z,97497.44
2022-09-28T22:19:16.079Z,97498.70
2022-09-28T22:21:48.190Z,97496.36
2022-09-28T22:24:16.134Z,97496.84
2022-09-28T22:26:44.470Z,97493.46
2022-09-28T22:29:14.649Z,97489.99
2022-09-28T22:31:44.154Z,97487.46
2022-09-28T22:34:12.216Z,97490.05
2022-09-28T22:36:42.489Z,97493.08
2022-09-28T22:39:10.658Z,97497.52
2022-09-28T22:41:38.633Z,97489.79
2022-09-28T22:44:06.681Z,97489.66
2022-09-28T22:46:35.202Z,97493.41
2022-09-28T22:49:05.327Z,97494.02
2022-09-28T22:51:35.709Z,97489.19
2022-09-28T22:54:03.453Z,97491.16
2022-09-28T22:56:34.510Z,97489.96
2022-09-28T22:59:06.628Z,97496.90
2022-09-28T23:04:19.927Z,97497.80
2022-09-28T23:06:49.334Z,97501.70
2022-09-28T23:09:17.563Z,97500.90
2022-09-28T23:11:47.774Z,97502.39
2022-09-28T23:14:15.650Z,97506.89
2022-09-28T23:16:46.160Z,97506.13
2022-09-28T23:19:13.843Z,97511.86
2022-09-28T23:21:47.115Z,97514.77
2022-09-28T23:24:15.959Z,97511.50
2022-09-28T23:26:45.167Z,97512.55
2022-09-28T23:29:14.124Z,97508.27
2022-09-28T23:31:46.476Z,97503.16
2022-09-28T23:34:14.335Z,97499.69
2022-09-28T23:36:44.656Z,97497.60
2022-09-28T23:39:12.624Z,97496.86
2022-09-28T23:41:43.004Z,97499.02
2022-09-28T23:44:10.994Z,97500.57
2022-09-28T23:46:42.519Z,97500.54
2022-09-28T23:49:12.994Z,97500.33
2022-09-28T23:51:40.769Z,97505.67
2022-09-28T23:54:11.102Z,97501.01
2022-09-28T23:56:41.461Z,97499.77
2022-09-28T23:59:09.373Z,97497.56
